Time;durP1;ratioP1;P1;durP2;ratioP2;P2;SDS_P1;SDS_P2;PMS_P1;PMS_P2;Temp;Humidity;BMP_temperature;BMP_pressure;BME280_temperature;BME280_humidity;BME280_pressure;Samples;Min_cycle;Max_cycle;Signal;HPM_P1;HPM_P2
2023/06/30 00:00:15;;;;;;;5.20;3.58;;;17.90;99.90;;;;;;4992735;28;20050;-67
2023/06/30 00:02:46;;;;;;;8.88;4.28;;;17.90;99.90;;;;;;4993018;28;20411;-67
2023/06/30 00:05:13;;;;;;;7.45;4.68;;;18.00;99.90;;;;;;4991704;28;20038;-68
2023/06/30 00:07:42;;;;;;;7.28;4.45;;;18.00;99.90;;;;;;4995554;28;20453;-67
2023/06/30 00:10:09;;;;;;;7.05;4.28;;;18.10;99.90;;;;;;4993464;28;20126;-67
2023/06/30 00:12:37;;;;;;;5.15;4.03;;;18.10;99.90;;;;;;4992835;28;20090;-67
2023/06/30 00:15:04;;;;;;;6.65;4.22;;;18.20;99.90;;;;;;4994414;28;20522;-67
2023/06/30 00:17:31;;;;;;;7.18;4.30;;;18.10;99.90;;;;;;4992573;28;20055;-67
2023/06/30 00:19:59;;;;;;;8.30;3.88;;;18.00;99.90;;;;;;4987426;28;20053;-70
2023/06/30 00:22:26;;;;;;;7.95;4.10;;;17.90;99.90;;;;;;4993296;28;20230;-67
2023/06/30 00:25:00;;;;;;;6.63;4.10;;;17.80;99.90;;;;;;4993729;28;20050;-67
2023/06/30 00:27:27;;;;;;;6.05;4.15;;;17.60;99.90;;;;;;4991874;28;20125;-67
2023/06/30 00:29:53;;;;;;;6.43;3.63;;;17.50;99.90;;;;;;4994187;28;20052;-67
2023/06/30 00:32:20;;;;;;;7.82;4.55;;;17.30;99.90;;;;;;4992143;28;20145;-67
2023/06/30 00:34:47;;;;;;;5.53;4.13;;;17.30;99.90;;;;;;4990668;28;20089;-67
2023/06/30 00:37:15;;;;;;;8.85;4.60;;;17.20;99.90;;;;;;4992656;28;20053;-67
2023/06/30 00:39:41;;;;;;;8.55;4.85;;;17.20;99.90;;;;;;4991854;28;20050;-67
2023/06/30 00:42:08;;;;;;;7.80;4.78;;;17.30;99.90;;;;;;4991955;28;20085;-67
2023/06/30 00:44:35;;;;;;;9.35;5.32;;;17.50;99.90;;;;;;4999065;28;20057;-67
2023/06/30 00:47:02;;;;;;;9.48;6.22;;;17.70;99.90;;;;;;4991725;28;20054;-67
2023/06/30 00:49:30;;;;;;;;;;;17.90;99.90;;;;;;4992432;28;20042;-67
2023/06/30 00:51:58;;;;;;;11.35;6.80;;;18.10;99.90;;;;;;4983394;28;19948;-67
2023/06/30 00:54:25;;;;;;;12.80;7.03;;;18.20;99.90;;;;;;4994828;28;20057;-67
2023/06/30 00:56:52;;;;;;;13.00;6.70;;;18.20;99.90;;;;;;4992032;28;20054;-67
2023/06/30 00:59:19;;;;;;;15.07;7.57;;;18.30;99.90;;;;;;4992357;28;20464;-67
2023/06/30 01:02:04;;;;;;;12.48;7.28;;;18.30;99.90;;;;;;4997091;28;20510;-67
2023/06/30 01:04:43;;;;;;;12.05;7.63;;;18.30;99.90;;;;;;4975555;28;20038;-66
2023/06/30 01:07:21;;;;;;;19.13;8.77;;;18.20;99.90;;;;;;4992123;28;20122;-66
2023/06/30 01:09:58;;;;;;;18.27;9.32;;;18.00;99.90;;;;;;4975840;28;20049;-67
2023/06/30 01:12:26;;;;;;;21.63;9.30;;;17.90;99.90;;;;;;4992613;28;20050;-66
2023/06/30 01:14:54;;;;;;;21.70;9.30;;;17.70;99.90;;;;;;4982980;28;20129;-67
2023/06/30 01:17:24;;;;;;;16.55;9.70;;;17.60;99.90;;;;;;4993313;28;20050;-66
2023/06/30 01:19:54;;;;;;;14.48;8.85;;;17.50;99.90;;;;;;4984525;28;20042;-67
2023/06/30 01:22:33;;;;;;;16.90;8.73;;;17.50;99.90;;;;;;4992497;28;20451;-66
2023/06/30 01:25:03;;;;;;;19.08;9.13;;;17.40;99.90;;;;;;4992886;28;20045;-66
2023/06/30 01:27:30;;;;;;;14.50;8.98;;;17.40;99.90;;;;;;4991314;28;20077;-66
2023/06/30 01:29:58;;;;;;;22.23;9.68;;;17.30;99.90;;;;;;4991864;28;20038;-66
2023/06/30 01:32:25;;;;;;;;;;;17.30;99.90;;;;;;4990527;28;20479;-66
2023/06/30 01:34:52;;;;;;;15.70;9.38;;;17.30;99.90;;;;;;4990865;28;19957;-66
2023/06/30 01:37:19;;;;;;;16.30;9.15;;;17.30;99.90;;;;;;4992312;28;20042;-66
2023/06/30 01:39:46;;;;;;;20.70;10.57;;;17.30;99.90;;;;;;4992103;28;20423;-66
2023/06/30 01:42:13;;;;;;;14.77;9.05;;;17.30;99.90;;;;;;4992541;28;20434;-66
2023/06/30 01:44:41;;;;;;;13.50;8.10;;;17.20;99.90;;;;;;4974686;28;20054;-67
2023/06/30 01:47:10;;;;;;;13.40;8.52;;;17.20;99.90;;;;;;4983029;28;20484;-67
2023/06/30 01:49:36;;;;;;;17.17;9.00;;;17.20;99.90;;;;;;4996679;28;20050;-66
2023/06/30 01:52:04;;;;;;;15.15;8.50;;;17.20;99.90;;;;;;4991421;28;20427;-66
2023/06/30 01:54:30;;;;;;;16.33;8.55;;;17.10;99.90;;;;;;4990442;28;20050;-67
2023/06/30 01:56:58;;;;;;;17.65;9.50;;;17.10;99.90;;;;;;4992623;28;20042;-67
2023/06/30 01:59:25;;;;;;;16.17;8.95;;;17.10;99.90;;;;;;4989431;28;20478;-66
2023/06/30 02:01:52;;;;;;;14.40;9.55;;;17.10;99.90;;;;;;4992176;28;20391;-66
2023/06/30 02:04:19;;;;;;;19.45;9.77;;;17.00;99.90;;;;;;4991818;28;20047;-66
2023/06/30 02:06:46;;;;;;;16.95;10.10;;;17.10;99.90;;;;;;4989117;28;20049;-67
2023/06/30 02:09:13;;;;;;;17.30;9.85;;;17.10;99.90;;;;;;4990317;28;20495;-67
2023/06/30 02:11:40;;;;;;;18.20;10.23;;;17.20;99.90;;;;;;4990341;28;20072;-67
2023/06/30 02:14:07;;;;;;;19.65;10.45;;;17.20;99.90;;;;;;4991205;28;20054;-66
2023/06/30 02:16:34;;;;;;;18.95;10.70;;;17.30;99.90;;;;;;4991509;28;20046;-66
2023/06/30 02:19:01;;;;;;;18.48;10.82;;;17.30;99.90;;;;;;4998555;28;20085;-66
2023/06/30 02:21:27;;;;;;;20.88;10.63;;;17.30;99.90;;;;;;4966537;28;20055;-66
2023/06/30 02:23:54;;;;;;;16.33;10.32;;;17.30;99.90;;;;;;4989878;28;20043;-66
2023/06/30 02:26:21;;;;;;;15.45;10.02;;;17.20;99.90;;;;;;4992353;28;20491;-66
2023/06/30 02:28:48;;;;;;;;;;;17.30;99.90;;;;;;4991512;28;20026;-66
2023/06/30 02:31:16;;;;;;;17.98;9.57;;;17.30;99.90;;;;;;4991649;28;19964;-66
2023/06/30 02:33:43;;;;;;;16.13;9.93;;;17.20;99.90;;;;;;4990192;28;20047;-66
2023/06/30 02:36:10;;;;;;;16.00;10.23;;;17.30;99.90;;;;;;4989030;28;20186;-66
2023/06/30 02:38:37;;;;;;;17.70;10.10;;;17.20;99.90;;;;;;4994212;28;20034;-66
2023/06/30 02:41:04;;;;;;;17.48;10.20;;;17.20;99.90;;;;;;4991475;28;20034;-67
2023/06/30 02:43:30;;;;;;;19.67;10.23;;;17.10;99.90;;;;;;4991305;28;20034;-67
2023/06/30 02:45:58;;;;;;;20.27;10.15;;;17.20;99.90;;;;;;4997194;28;20137;-66
2023/06/30 02:48:27;;;;;;;18.45;10.90;;;17.20;99.90;;;;;;4990701;28;20060;-66
2023/06/30 02:50:53;;;;;;;18.83;9.77;;;17.10;99.90;;;;;;4968195;28;20042;-67
2023/06/30 02:53:20;;;;;;;16.60;10.32;;;17.10;99.90;;;;;;4985618;28;20094;-67
2023/06/30 02:55:47;;;;;;;15.73;9.88;;;17.10;99.90;;;;;;4977506;28;20050;-66
2023/06/30 02:58:15;;;;;;;16.80;10.27;;;17.10;99.90;;;;;;4980100;28;20042;-67
2023/06/30 03:00:41;;;;;;;16.48;10.02;;;17.10;99.90;;;;;;4993941;28;20046;-67
2023/06/30 03:03:08;;;;;;;17.90;11.30;;;17.10;99.90;;;;;;4992102;28;20057;-67
2023/06/30 03:05:37;;;;;;;16.98;9.80;;;17.00;99.90;;;;;;4994140;28;20407;-67
2023/06/30 03:08:06;;;;;;;17.83;10.55;;;17.10;99.90;;;;;;4977905;28;20417;-67
2023/06/30 03:10:33;;;;;;;20.20;11.10;;;17.10;99.90;;;;;;4993865;28;20066;-66
2023/06/30 03:13:00;;;;;;;17.73;10.93;;;17.00;99.90;;;;;;4973020;28;20093;-66
2023/06/30 03:15:27;;;;;;;19.45;11.05;;;17.00;99.90;;;;;;4989857;28;20049;-66
2023/06/30 03:17:55;;;;;;;16.88;10.23;;;17.00;99.90;;;;;;4994113;28;20046;-67
2023/06/30 03:20:23;;;;;;;19.67;10.75;;;17.00;99.90;;;;;;4994115;28;20450;-67
2023/06/30 03:22:53;;;;;;;18.30;10.77;;;17.00;99.90;;;;;;4992506;28;20479;-67
2023/06/30 03:25:21;;;;;;;20.02;10.70;;;16.90;99.90;;;;;;4977699;28;20043;-67
2023/06/30 03:27:47;;;;;;;15.60;9.60;;;17.00;99.90;;;;;;4969177;28;20126;-67
2023/06/30 03:30:16;;;;;;;19.23;9.88;;;17.00;99.90;;;;;;4985361;28;20045;-67
2023/06/30 03:32:44;;;;;;;14.52;9.40;;;17.00;99.90;;;;;;4993563;28;20430;-67
2023/06/30 03:35:11;;;;;;;15.00;9.50;;;17.00;99.90;;;;;;4993899;28;20050;-67
2023/06/30 03:37:38;;;;;;;14.98;9.40;;;16.90;99.90;;;;;;4994888;28;20050;-67
2023/06/30 03:40:05;;;;;;;17.77;9.75;;;16.90;99.90;;;;;;4992835;28;20529;-66
2023/06/30 03:42:33;;;;;;;16.67;10.60;;;16.90;99.90;;;;;;4993943;28;20108;-66
2023/06/30 03:45:00;;;;;;;17.15;10.25;;;16.90;99.90;;;;;;4986834;28;20126;-66
2023/06/30 03:47:30;;;;;;;20.65;10.68;;;16.90;99.90;;;;;;4993111;28;20039;-66
2023/06/30 03:49:57;;;;;;;15.73;9.80;;;16.90;99.90;;;;;;4992515;28;20094;-66
2023/06/30 03:52:26;;;;;;;19.38;10.90;;;16.90;99.90;;;;;;4992387;28;20238;-66
2023/06/30 03:54:53;;;;;;;17.40;10.25;;;16.90;99.90;;;;;;4994063;28;20181;-66
2023/06/30 03:57:20;;;;;;;16.92;10.98;;;16.90;99.90;;;;;;4992213;28;20510;-66
2023/06/30 03:59:47;;;;;;;19.42;10.30;;;16.80;99.90;;;;;;4968596;28;20065;-66
2023/06/30 04:02:14;;;;;;;19.83;12.23;;;16.90;99.90;;;;;;4993101;28;20098;-66
2023/06/30 04:04:41;;;;;;;17.90;10.73;;;16.90;99.90;;;;;;4993896;28;20125;-66
2023/06/30 04:07:07;;;;;;;18.67;11.27;;;16.90;99.90;;;;;;4994678;28;20066;-66
2023/06/30 04:09:35;;;;;;;16.52;10.98;;;16.90;99.90;;;;;;4993754;28;20121;-66
2023/06/30 04:12:02;;;;;;;;;;;16.80;99.90;;;;;;4995008;28;20046;-66
2023/06/30 04:14:29;;;;;;;21.67;12.45;;;17.00;99.90;;;;;;4994067;28;20676;-67
2023/06/30 04:16:55;;;;;;;18.90;11.50;;;17.00;99.90;;;;;;4993821;28;20057;-67
2023/06/30 04:19:25;;;;;;;19.30;11.35;;;17.00;99.90;;;;;;4992246;28;20471;-67
2023/06/30 04:21:51;;;;;;;18.08;10.48;;;17.00;99.90;;;;;;4993988;28;20046;-67
2023/06/30 04:24:19;;;;;;;17.20;10.75;;;17.10;99.90;;;;;;4993031;28;20049;-67
2023/06/30 04:26:46;;;;;;;16.65;10.52;;;17.10;99.90;;;;;;4994041;28;20108;-67
2023/06/30 04:29:13;;;;;;;18.92;10.48;;;17.10;99.90;;;;;;4992922;28;20483;-67
2023/06/30 04:31:42;;;;;;;17.85;10.60;;;17.10;99.90;;;;;;4993053;28;20561;-67
2023/06/30 04:34:09;;;;;;;19.58;10.95;;;17.10;99.90;;;;;;4993715;28;20093;-67
2023/06/30 04:36:36;;;;;;;17.70;10.95;;;17.10;99.90;;;;;;4993135;28;20137;-67
2023/06/30 04:39:03;;;;;;;18.42;10.77;;;17.10;99.90;;;;;;4986082;28;20070;-67
2023/06/30 04:41:30;;;;;;;19.15;10.95;;;17.10;99.90;;;;;;4993683;28;20034;-67
2023/06/30 04:43:57;;;;;;;17.77;11.02;;;17.10;99.90;;;;;;4993478;28;20042;-67
2023/06/30 04:46:25;;;;;;;22.50;14.10;;;17.10;99.90;;;;;;4991984;28;20046;-66
2023/06/30 04:48:52;;;;;;;19.05;13.00;;;17.20;99.90;;;;;;4993524;28;20108;-66
2023/06/30 04:51:19;;;;;;;20.85;12.73;;;17.30;99.90;;;;;;4993516;28;20051;-66
2023/06/30 04:53:45;;;;;;;19.83;11.80;;;17.40;99.90;;;;;;4991842;28;20050;-66
2023/06/30 04:56:12;;;;;;;22.45;12.20;;;17.40;99.90;;;;;;4993759;28;20046;-66
2023/06/30 04:58:39;;;;;;;22.08;12.35;;;17.60;99.90;;;;;;4992230;28;20039;-66
2023/06/30 05:01:06;;;;;;;23.60;12.52;;;17.50;99.90;;;;;;4992126;28;20039;-66
2023/06/30 05:03:33;;;;;;;;;;;17.60;99.90;;;;;;4992886;28;20397;-67
2023/06/30 05:06:00;;;;;;;20.70;12.77;;;17.70;99.90;;;;;;4991033;28;19950;-67
2023/06/30 05:08:27;;;;;;;20.77;12.45;;;17.80;99.90;;;;;;4993170;28;20051;-67
2023/06/30 05:10:53;;;;;;;20.40;12.05;;;17.80;99.90;;;;;;4991996;28;20048;-67
2023/06/30 05:13:20;;;;;;;20.70;12.35;;;17.90;99.90;;;;;;4991001;28;20039;-67
2023/06/30 05:15:47;;;;;;;18.35;12.15;;;18.00;99.90;;;;;;4975719;28;20410;-67
2023/06/30 05:18:14;;;;;;;20.08;12.43;;;18.10;99.90;;;;;;4992438;28;20050;-67
2023/06/30 05:20:41;;;;;;;19.05;12.27;;;18.20;99.90;;;;;;4986983;28;20121;-67
2023/06/30 05:23:08;;;;;;;20.50;12.00;;;18.30;99.90;;;;;;4991343;28;20038;-67
2023/06/30 05:25:35;;;;;;;18.83;12.85;;;18.30;99.90;;;;;;4973141;28;20038;-67
2023/06/30 05:28:03;;;;;;;19.70;12.07;;;18.30;99.90;;;;;;4992274;28;20125;-67
2023/06/30 05:30:30;;;;;;;18.02;11.80;;;18.50;99.90;;;;;;4991008;28;20034;-66
2023/06/30 05:32:56;;;;;;;19.40;12.02;;;18.50;99.90;;;;;;4989269;28;20403;-66
2023/06/30 05:35:23;;;;;;;19.92;13.45;;;18.60;99.90;;;;;;4991884;28;20492;-67
2023/06/30 05:37:50;;;;;;;23.20;12.90;;;18.60;99.90;;;;;;4992248;28;20499;-67
2023/06/30 05:40:17;;;;;;;21.38;12.85;;;18.50;99.90;;;;;;4992441;28;20047;-67
2023/06/30 05:42:44;;;;;;;17.40;11.85;;;18.50;99.90;;;;;;4973884;28;20122;-67
2023/06/30 05:45:10;;;;;;;25.35;12.90;;;18.50;99.90;;;;;;4992464;28;20042;-67
2023/06/30 05:47:37;;;;;;;22.27;13.35;;;18.60;99.90;;;;;;4992311;28;20398;-67
2023/06/30 05:50:04;;;;;;;20.38;12.48;;;18.60;99.90;;;;;;4992508;28;20089;-67
2023/06/30 05:52:31;;;;;;;22.65;13.27;;;18.60;99.90;;;;;;4991924;28;20034;-67
2023/06/30 05:54:59;;;;;;;21.30;12.95;;;18.70;99.90;;;;;;4990784;28;20046;-67
2023/06/30 05:57:29;;;;;;;18.83;12.30;;;18.70;99.90;;;;;;4992741;28;20121;-67
2023/06/30 05:59:56;;;;;;;19.65;11.85;;;18.80;99.90;;;;;;4991547;28;20046;-67
2023/06/30 06:02:23;;;;;;;19.13;12.30;;;19.00;99.90;;;;;;4992556;28;20038;-67
2023/06/30 06:04:51;;;;;;;21.13;11.82;;;19.10;99.90;;;;;;4990423;28;20078;-67
2023/06/30 06:07:18;;;;;;;22.95;12.88;;;19.10;99.90;;;;;;4992475;28;20042;-67
2023/06/30 06:09:45;;;;;;;20.02;11.77;;;19.20;99.90;;;;;;4992096;28;20451;-67
2023/06/30 06:12:12;;;;;;;22.98;12.40;;;19.20;99.90;;;;;;4992322;28;20418;-67
2023/06/30 06:14:39;;;;;;;19.60;12.10;;;19.30;99.90;;;;;;4991050;28;20581;-67
2023/06/30 06:17:05;;;;;;;20.95;12.48;;;19.40;99.90;;;;;;4991459;28;20053;-67
2023/06/30 06:19:32;;;;;;;21.33;12.77;;;19.40;99.90;;;;;;4988234;28;20046;-67
2023/06/30 06:22:00;;;;;;;19.25;11.88;;;19.50;99.90;;;;;;4987457;28;20507;-67
2023/06/30 06:24:27;;;;;;;19.35;12.00;;;19.40;99.90;;;;;;4990272;28;20097;-67
2023/06/30 06:26:54;;;;;;;23.63;12.82;;;19.40;99.90;;;;;;4989815;28;20080;-67
2023/06/30 06:29:22;;;;;;;22.23;13.40;;;19.30;99.90;;;;;;4991769;28;20125;-67
2023/06/30 06:31:50;;;;;;;19.48;12.52;;;19.20;99.90;;;;;;4988116;28;20096;-67
2023/06/30 06:34:20;;;;;;;21.05;12.60;;;19.20;99.90;;;;;;4991368;28;20139;-67
2023/06/30 06:36:48;;;;;;;19.67;12.73;;;19.20;99.90;;;;;;4990977;28;20506;-67
2023/06/30 06:39:15;;;;;;;21.30;12.98;;;19.30;99.90;;;;;;4991489;28;20043;-67
2023/06/30 06:41:41;;;;;;;18.85;11.77;;;19.20;99.90;;;;;;4990298;28;20399;-67
2023/06/30 06:44:08;;;;;;;20.23;11.77;;;19.20;99.90;;;;;;4989976;28;20094;-67
2023/06/30 06:46:35;;;;;;;24.73;13.18;;;19.20;99.90;;;;;;4991112;28;20043;-67
2023/06/30 06:49:03;;;;;;;19.42;12.52;;;19.20;99.90;;;;;;4989529;28;20042;-67
2023/06/30 06:51:30;;;;;;;22.08;12.02;;;19.20;99.90;;;;;;4991282;28;20487;-67
2023/06/30 06:53:57;;;;;;;22.10;12.95;;;19.10;99.90;;;;;;4990557;28;20508;-67
2023/06/30 06:56:23;;;;;;;19.23;12.00;;;19.20;99.90;;;;;;4991425;28;20492;-67
2023/06/30 06:58:50;;;;;;;24.08;12.95;;;19.20;99.90;;;;;;4989601;28;20508;-67
2023/06/30 07:01:17;;;;;;;25.05;13.65;;;19.20;99.90;;;;;;4991386;28;20117;-67
2023/06/30 07:03:44;;;;;;;20.98;12.63;;;19.20;99.90;;;;;;4990860;28;20030;-67
2023/06/30 07:06:11;;;;;;;21.05;13.02;;;19.20;99.90;;;;;;4982669;28;20407;-67
2023/06/30 07:08:39;;;;;;;20.88;13.40;;;19.50;99.90;;;;;;4990203;28;20403;-67
2023/06/30 07:11:10;;;;;;;23.75;12.57;;;19.60;99.90;;;;;;4990913;28;20061;-67
2023/06/30 07:13:38;;;;;;;22.15;13.50;;;19.70;99.90;;;;;;4990497;28;20420;-67
2023/06/30 07:16:05;;;;;;;23.38;13.32;;;19.80;99.90;;;;;;4989839;28;20047;-67
2023/06/30 07:18:34;;;;;;;21.15;12.50;;;20.00;99.90;;;;;;4991172;28;20050;-67
2023/06/30 07:21:01;;;;;;;22.42;12.95;;;20.20;99.90;;;;;;4989900;28;20495;-67
2023/06/30 07:23:28;;;;;;;21.15;12.50;;;20.20;99.90;;;;;;4987599;28;20046;-67
2023/06/30 07:25:55;;;;;;;24.27;13.13;;;20.20;99.90;;;;;;4973273;28;20133;-67
2023/06/30 07:28:22;;;;;;;24.95;13.45;;;20.30;99.90;;;;;;4989898;28;20050;-67
2023/06/30 07:30:48;;;;;;;19.85;12.48;;;20.30;99.90;;;;;;4990377;28;20117;-67
2023/06/30 07:33:17;;;;;;;20.23;12.77;;;20.30;99.90;;;;;;4990058;28;20034;-67
2023/06/30 07:35:44;;;;;;;23.15;12.65;;;20.40;99.90;;;;;;4991238;28;20064;-67
2023/06/30 07:38:11;;;;;;;26.80;12.52;;;20.40;99.90;;;;;;4994339;28;20311;-67
2023/06/30 07:40:38;;;;;;;21.02;12.55;;;20.40;99.90;;;;;;4993180;28;20528;-67
2023/06/30 07:43:21;;;;;;;21.90;12.57;;;20.40;99.90;;;;;;4994395;28;20049;-67
2023/06/30 07:45:48;;;;;;;20.63;12.70;;;20.40;99.90;;;;;;4993397;28;20066;-67
2023/06/30 07:48:15;;;;;;;;;;;20.40;99.90;;;;;;4995010;28;20126;-67
2023/06/30 07:50:42;;;;;;;19.67;12.95;;;20.40;99.90;;;;;;4992424;28;19969;-67
2023/06/30 07:53:29;;;;;;;21.90;13.77;;;20.40;99.90;;;;;;4994092;28;20094;-67
2023/06/30 07:55:56;;;;;;;23.20;13.27;;;20.40;99.90;;;;;;4992310;28;20057;-67
2023/06/30 07:58:22;;;;;;;23.50;13.93;;;20.50;99.90;;;;;;4993994;28;20056;-67
2023/06/30 08:00:49;;;;;;;19.65;12.40;;;20.50;99.90;;;;;;4991432;28;20164;-67
2023/06/30 08:03:16;;;;;;;22.23;13.18;;;20.70;99.90;;;;;;4994001;28;20046;-67
2023/06/30 08:05:43;;;;;;;20.48;12.90;;;21.00;99.90;;;;;;4992925;28;20097;-67
2023/06/30 08:08:10;;;;;;;21.23;12.90;;;20.90;99.90;;;;;;4993380;28;20499;-67
2023/06/30 08:10:37;;;;;;;20.77;12.95;;;20.90;99.90;;;;;;4997624;28;20049;-67
2023/06/30 08:13:06;;;;;;;24.08;13.98;;;21.00;99.90;;;;;;4993173;28;20427;-67
2023/06/30 08:15:33;;;;;;;21.55;13.25;;;21.10;99.90;;;;;;4993575;28;20057;-67
2023/06/30 08:17:59;;;;;;;26.60;14.00;;;21.10;99.90;;;;;;4992641;28;20050;-67
2023/06/30 08:20:36;;;;;;;20.63;13.32;;;21.00;99.90;;;;;;4993644;28;20050;-67
2023/06/30 08:23:02;;;;;;;;;;;20.90;99.90;;;;;;4993429;28;20487;-67
2023/06/30 08:25:29;;;;;;;21.85;13.02;;;20.70;99.90;;;;;;4993611;28;19922;-67
2023/06/30 08:27:56;;;;;;;25.95;14.32;;;20.80;99.90;;;;;;4987739;28;20146;-67
2023/06/30 08:30:23;;;;;;;30.02;14.80;;;20.70;99.90;;;;;;4993621;28;20487;-67
2023/06/30 08:32:51;;;;;;;25.05;15.52;;;20.70;99.90;;;;;;4986319;28;20586;-67
2023/06/30 08:35:18;;;;;;;20.30;12.73;;;20.60;99.90;;;;;;4992901;28;20039;-67
2023/06/30 08:37:46;;;;;;;;;;;20.60;99.90;;;;;;4992481;28;20042;-67
2023/06/30 08:40:36;;;;;;;20.17;12.20;;;20.40;99.90;;;;;;4993641;28;19964;-67
2023/06/30 08:43:09;;;;;;;20.27;11.95;;;20.40;99.90;;;;;;4992877;28;20042;-67
2023/06/30 08:45:36;;;;;;;23.20;12.65;;;20.40;99.90;;;;;;4993011;28;20034;-67
2023/06/30 08:48:04;;;;;;;23.60;13.30;;;20.30;99.90;;;;;;4992146;28;20038;-67
2023/06/30 08:50:36;;;;;;;19.80;12.55;;;20.30;99.90;;;;;;4991121;28;20050;-67
2023/06/30 08:53:03;;;;;;;22.80;12.48;;;20.40;99.90;;;;;;4992156;28;20070;-67
2023/06/30 08:55:30;;;;;;;24.63;13.52;;;20.50;99.90;;;;;;4992844;28;20035;-67
2023/06/30 08:57:58;;;;;;;20.38;12.15;;;20.40;99.90;;;;;;4992845;28;20718;-67
2023/06/30 09:00:32;;;;;;;18.80;11.50;;;20.40;99.90;;;;;;4991863;28;20038;-67
2023/06/30 09:03:04;;;;;;;22.67;12.52;;;20.30;99.90;;;;;;4992455;28;20050;-67
2023/06/30 09:05:36;;;;;;;21.88;11.75;;;20.30;99.90;;;;;;4992837;28;20046;-67
2023/06/30 09:08:13;;;;;;;19.50;11.60;;;20.30;99.90;;;;;;4991554;28;20038;-67
2023/06/30 09:10:41;;;;;;;19.33;12.10;;;20.50;99.90;;;;;;4991744;28;20053;-67
2023/06/30 09:13:10;;;;;;;31.02;11.18;;;20.50;99.90;;;;;;4992202;28;20038;-67
2023/06/30 09:15:39;;;;;;;21.23;10.23;;;20.50;99.90;;;;;;4992989;28;20691;-67
2023/06/30 09:18:06;;;;;;;15.80;10.80;;;20.60;99.90;;;;;;4991288;28;20046;-67
2023/06/30 09:20:33;;;;;;;21.42;11.85;;;20.60;99.90;;;;;;4992756;28;20117;-67
2023/06/30 09:23:03;;;;;;;15.25;10.57;;;20.50;99.90;;;;;;4989055;28;20074;-67
2023/06/30 09:25:33;;;;;;;18.67;11.15;;;20.60;99.90;;;;;;4992616;28;20041;-67
2023/06/30 09:28:08;;;;;;;25.70;11.13;;;20.60;99.90;;;;;;4990924;28;20058;-67
2023/06/30 09:30:37;;;;;;;22.27;11.05;;;20.80;99.90;;;;;;4992617;28;20049;-67
2023/06/30 09:33:05;;;;;;;22.60;10.85;;;21.00;99.90;;;;;;4989409;28;20042;-67
2023/06/30 09:35:38;;;;;;;21.42;10.65;;;21.30;99.90;;;;;;4992582;28;20039;-67
2023/06/30 09:38:10;;;;;;;15.90;11.20;;;21.60;99.90;;;;;;4989477;28;20042;-67
2023/06/30 09:40:37;;;;;;;20.90;10.55;;;21.60;99.90;;;;;;4991362;28;20117;-67
2023/06/30 09:43:04;;;;;;;;;;;21.60;99.90;;;;;;4991914;28;20053;-67
2023/06/30 09:45:31;;;;;;;20.65;10.73;;;21.50;99.90;;;;;;4992057;28;19922;-67
2023/06/30 09:47:57;;;;;;;20.48;10.85;;;21.40;99.90;;;;;;4991156;28;20042;-67
2023/06/30 09:50:30;;;;;;;17.63;10.73;;;21.20;99.90;;;;;;4992131;28;20514;-67
2023/06/30 09:53:00;;;;;;;19.15;10.98;;;21.10;99.90;;;;;;4991108;28;20057;-67
2023/06/30 09:55:27;;;;;;;15.73;11.15;;;21.20;99.90;;;;;;4992281;28;20042;-67
2023/06/30 09:57:56;;;;;;;18.40;11.23;;;21.00;99.90;;;;;;4991004;28;20046;-67
2023/06/30 10:00:25;;;;;;;21.60;12.85;;;21.00;99.90;;;;;;4991884;28;20065;-67
2023/06/30 10:03:05;;;;;;;20.42;12.02;;;20.90;99.90;;;;;;4991401;28;20050;-67
2023/06/30 10:05:32;;;;;;;15.55;10.98;;;20.70;99.90;;;;;;4989865;28;20051;-67
2023/06/30 10:08:02;;;;;;;18.75;10.90;;;20.60;99.90;;;;;;4991651;28;20046;-67
2023/06/30 10:10:30;;;;;;;22.55;11.50;;;20.60;99.90;;;;;;4991866;28;20038;-67
2023/06/30 10:12:58;;;;;;;21.05;11.93;;;20.60;99.90;;;;;;4990754;28;20043;-67
2023/06/30 10:15:26;;;;;;;20.98;12.05;;;20.50;99.90;;;;;;4990534;28;20484;-67
2023/06/30 10:17:57;;;;;;;23.75;12.70;;;20.60;99.90;;;;;;4991434;28;20042;-67
2023/06/30 10:20:24;;;;;;;19.42;11.57;;;20.60;99.90;;;;;;4991397;28;20046;-67
2023/06/30 10:23:13;;;;;;;24.00;11.82;;;20.70;99.90;;;;;;4989865;28;20038;-67
2023/06/30 10:25:40;;;;;;;21.15;12.65;;;20.80;99.90;;;;;;4991284;28;20056;-67
2023/06/30 10:28:08;;;;;;;21.45;12.05;;;21.00;99.90;;;;;;4990767;28;20042;-67
2023/06/30 10:30:35;;;;;;;20.80;11.57;;;21.10;99.90;;;;;;4990832;28;20053;-67
2023/06/30 10:33:02;;;;;;;17.67;10.65;;;21.30;99.90;;;;;;4991017;28;20521;-67
2023/06/30 10:35:29;;;;;;;;;;;21.30;99.90;;;;;;4991066;28;21380;-67
2023/06/30 10:37:57;;;;;;;18.98;10.60;;;21.50;99.90;;;;;;4991590;28;19926;-67
2023/06/30 10:40:29;;;;;;;18.80;10.82;;;21.70;99.90;;;;;;4990735;28;20045;-67
2023/06/30 10:42:57;;;;;;;16.05;10.90;;;21.80;99.90;;;;;;4991126;28;20050;-67
2023/06/30 10:45:33;;;;;;;18.65;10.80;;;21.80;99.90;;;;;;4990114;28;20050;-67
2023/06/30 10:48:13;;;;;;;21.50;11.60;;;21.90;99.90;;;;;;4990827;28;20129;-67
2023/06/30 10:50:42;;;;;;;16.88;11.25;;;22.00;99.90;;;;;;4991255;28;20125;-67
2023/06/30 10:53:17;;;;;;;16.60;10.90;;;22.00;99.90;;;;;;4989053;28;20047;-67
2023/06/30 10:55:44;;;;;;;22.75;11.63;;;22.00;99.90;;;;;;4973958;28;20046;-67
2023/06/30 10:58:22;;;;;;;17.25;11.82;;;22.00;99.90;;;;;;4991070;28;20062;-67
2023/06/30 11:01:06;;;;;;;21.50;12.38;;;21.90;99.90;;;;;;4991418;28;20038;-67
2023/06/30 11:04:08;;;;;;;20.05;11.98;;;21.70;99.90;;;;;;4989455;28;20125;-67
2023/06/30 11:06:36;;;;;;;19.67;11.75;;;21.70;99.90;;;;;;4990815;28;20042;-67
2023/06/30 11:09:12;;;;;;;16.92;10.93;;;21.30;99.90;;;;;;4991279;28;20046;-67
2023/06/30 11:11:49;;;;;;;17.98;11.82;;;21.30;99.90;;;;;;4991418;28;20054;-67
2023/06/30 11:14:30;;;;;;;18.02;10.98;;;21.30;99.90;;;;;;4994581;28;20053;-67
2023/06/30 11:17:07;;;;;;;19.67;11.85;;;21.30;99.90;;;;;;4994551;28;20060;-67
2023/06/30 11:19:37;;;;;;;21.30;11.43;;;21.30;99.90;;;;;;4993095;28;20407;-67
2023/06/30 11:22:25;;;;;;;19.10;11.80;;;21.20;99.90;;;;;;4994627;28;20410;-67
2023/06/30 11:24:52;;;;;;;17.80;11.27;;;21.30;99.90;;;;;;4990947;28;20102;-67
2023/06/30 11:27:20;;;;;;;;;;;21.30;99.90;;;;;;4994741;28;20496;-67
2023/06/30 11:29:52;;;;;;;16.57;11.73;;;21.40;99.90;;;;;;4993552;28;20036;-67
2023/06/30 11:32:27;;;;;;;19.88;12.77;;;21.40;99.90;;;;;;4994252;28;20038;-67
2023/06/30 11:34:56;;;;;;;16.77;11.80;;;21.40;99.90;;;;;;4992663;28;20070;-67
2023/06/30 11:37:23;;;;;;;18.92;11.75;;;21.40;99.90;;;;;;4994410;28;20042;-67
2023/06/30 11:39:55;;;;;;;18.55;11.63;;;21.30;99.90;;;;;;4994796;28;20045;-67
2023/06/30 11:42:23;;;;;;;20.17;12.32;;;21.30;99.90;;;;;;4993812;28;20144;-67
2023/06/30 11:44:50;;;;;;;18.35;12.00;;;21.20;99.90;;;;;;4992258;28;20038;-67
2023/06/30 11:47:17;;;;;;;18.50;12.55;;;21.30;99.90;;;;;;4994119;28;20042;-67
2023/06/30 11:49:48;;;;;;;20.25;12.25;;;21.10;99.90;;;;;;4993360;28;20080;-67
2023/06/30 11:52:16;;;;;;;24.85;13.40;;;21.00;99.90;;;;;;4993864;28;20035;-67
2023/06/30 11:54:43;;;;;;;23.98;13.10;;;21.00;99.90;;;;;;4993212;28;20046;-67
2023/06/30 11:57:10;;;;;;;19.55;12.00;;;21.00;99.90;;;;;;4994064;28;20042;-67
2023/06/30 11:59:37;;;;;;;20.00;12.63;;;20.80;99.90;;;;;;4993026;28;20038;-67
2023/06/30 12:02:04;;;;;;;17.10;11.80;;;20.80;99.90;;;;;;4994030;28;20405;-67
2023/06/30 12:04:33;;;;;;;17.30;11.55;;;20.90;99.90;;;;;;4993541;28;20038;-67
2023/06/30 12:07:03;;;;;;;21.13;12.05;;;21.00;99.90;;;;;;4994130;28;20125;-67
2023/06/30 12:09:30;;;;;;;22.30;10.63;;;21.10;99.90;;;;;;4992677;28;20072;-67
2023/06/30 12:11:57;;;;;;;17.42;9.77;;;21.10;99.90;;;;;;4994021;28;20074;-67
2023/06/30 12:14:25;;;;;;;17.67;10.70;;;21.10;99.90;;;;;;4993194;28;20058;-67
2023/06/30 12:16:54;;;;;;;14.73;10.30;;;21.10;99.90;;;;;;4992333;28;20069;-67
2023/06/30 12:19:26;;;;;;;23.95;10.85;;;21.10;99.90;;;;;;4993504;28;20554;-67
2023/06/30 12:22:07;;;;;;;18.13;10.65;;;21.20;99.90;;;;;;4993237;28;20030;-67
2023/06/30 12:24:34;;;;;;;17.65;10.90;;;21.10;99.90;;;;;;4992884;28;20045;-67
2023/06/30 12:27:06;;;;;;;20.27;11.98;;;21.10;99.90;;;;;;4991721;28;20511;-67
2023/06/30 12:29:35;;;;;;;19.88;11.77;;;21.00;99.90;;;;;;4993870;28;20034;-67
2023/06/30 12:32:14;;;;;;;20.55;12.30;;;20.90;99.90;;;;;;4991211;28;20496;-66
2023/06/30 12:34:41;;;;;;;18.05;10.02;;;20.90;99.90;;;;;;4991908;28;20125;-66
2023/06/30 12:37:08;;;;;;;;;;;20.90;99.90;;;;;;4992498;28;20042;-67
2023/06/30 12:39:35;;;;;;;27.23;12.23;;;20.80;99.90;;;;;;4991305;28;19929;-66